sensor_id;sensor_type;location;lat;lon;timestamp;pressure;altitude;pressure_sealevel;temperature;humidity
39891;BME280;25564;53.312;9.790;2024-01-15T00:02:11;98959.44;;;-0.02;82.92
39891;BME280;25564;53.312;9.790;2024-01-15T00:04:42;98955.78;;;0.02;83.17
39891;BME280;25564;53.312;9.790;2024-01-15T00:07:14;98940.91;;;0.09;83.62
39891;BME280;25564;53.312;9.790;2024-01-15T00:09:45;98929.28;;;0.17;83.96
39891;BME280;25564;53.312;9.790;2024-01-15T00:12:16;98933.88;;;0.25;83.87
39891;BME280;25564;53.312;9.790;2024-01-15T00:14:48;98940.31;;;0.30;83.77
39891;BME280;25564;53.312;9.790;2024-01-15T00:17:19;98930.53;;;0.37;83.77
39891;BME280;25564;53.312;9.790;2024-01-15T00:19:52;98920.09;;;0.40;83.97
39891;BME280;25564;53.312;9.790;2024-01-15T00:22:25;98912.03;;;0.46;83.99
39891;BME280;25564;53.312;9.790;2024-01-15T00:24:56;98923.88;;;0.47;83.64
39891;BME280;25564;53.312;9.790;2024-01-15T00:27:28;98922.03;;;0.49;83.75
39891;BME280;25564;53.312;9.790;2024-01-15T00:29:59;98914.38;;;0.49;83.96
39891;BME280;25564;53.312;9.790;2024-01-15T00:32:31;98918.56;;;0.50;83.55
39891;BME280;25564;53.312;9.790;2024-01-15T00:35:03;98928.16;;;0.46;83.76
39891;BME280;25564;53.312;9.790;2024-01-15T00:37:34;98918.84;;;0.45;83.99
39891;BME280;25564;53.312;9.790;2024-01-15T00:40:08;98911.22;;;0.45;84.13
39891;BME280;25564;53.312;9.790;2024-01-15T00:42:39;98912.84;;;0.46;83.71
39891;BME280;25564;53.312;9.790;2024-01-15T00:45:11;98907.44;;;0.51;83.93
39891;BME280;25564;53.312;9.790;2024-01-15T00:47:42;98908.97;;;0.53;83.86
39891;BME280;25564;53.312;9.790;2024-01-15T00:50:15;98894.47;;;0.54;84.06
39891;BME280;25564;53.312;9.790;2024-01-15T00:52:46;98897.72;;;0.56;84.01
39891;BME280;25564;53.312;9.790;2024-01-15T00:55:17;98898.25;;;0.61;84.09
39891;BME280;25564;53.312;9.790;2024-01-15T00:57:49;98893.03;;;0.62;83.67
39891;BME280;25564;53.312;9.790;2024-01-15T01:00:20;98877.72;;;0.62;83.80
39891;BME280;25564;53.312;9.790;2024-01-15T01:02:52;98875.09;;;0.64;84.09
39891;BME280;25564;53.312;9.790;2024-01-15T01:05:23;98881.59;;;0.68;83.98
39891;BME280;25564;53.312;9.790;2024-01-15T01:07:55;98874.66;;;0.70;83.69
39891;BME280;25564;53.312;9.790;2024-01-15T01:10:27;98862.59;;;0.72;83.80
39891;BME280;25564;53.312;9.790;2024-01-15T01:12:59;98870.34;;;0.70;83.53
39891;BME280;25564;53.312;9.790;2024-01-15T01:15:30;98872.19;;;0.68;83.71
39891;BME280;25564;53.312;9.790;2024-01-15T01:18:01;98874.84;;;0.67;83.42
39891;BME280;25564;53.312;9.790;2024-01-15T01:20:33;98877.13;;;0.59;82.81
39891;BME280;25564;53.312;9.790;2024-01-15T01:23:05;98865.09;;;0.48;83.01
39891;BME280;25564;53.312;9.790;2024-01-15T01:25:36;98868.91;;;0.43;82.85
39891;BME280;25564;53.312;9.790;2024-01-15T01:28:07;98863.09;;;0.41;82.88
39891;BME280;25564;53.312;9.790;2024-01-15T01:30:39;98855.75;;;0.36;82.76
39891;BME280;25564;53.312;9.790;2024-01-15T01:33:11;98857.78;;;0.31;82.78
39891;BME280;25564;53.312;9.790;2024-01-15T01:35:42;98862.75;;;0.33;83.25
39891;BME280;25564;53.312;9.790;2024-01-15T01:38:14;98859.19;;;0.35;83.46
39891;BME280;25564;53.312;9.790;2024-01-15T01:40:46;98861.44;;;0.40;83.62
39891;BME280;25564;53.312;9.790;2024-01-15T01:43:17;98847.56;;;0.44;83.87
39891;BME280;25564;53.312;9.790;2024-01-15T01:45:49;98845.53;;;0.49;84.00
39891;BME280;25564;53.312;9.790;2024-01-15T01:48:20;98861.53;;;0.51;83.65
39891;BME280;25564;53.312;9.790;2024-01-15T01:50:58;98875.69;;;0.55;83.98
39891;BME280;25564;53.312;9.790;2024-01-15T01:53:31;98855.19;;;0.56;83.74
39891;BME280;25564;53.312;9.790;2024-01-15T01:56:04;98838.16;;;0.57;83.51
39891;BME280;25564;53.312;9.790;2024-01-15T01:58:36;98837.94;;;0.60;84.08
39891;BME280;25564;53.312;9.790;2024-01-15T02:01:08;98838.84;;;0.59;83.80
39891;BME280;25564;53.312;9.790;2024-01-15T02:03:40;98846.31;;;0.62;84.05
39891;BME280;25564;53.312;9.790;2024-01-15T02:06:12;98841.22;;;0.62;83.88
39891;BME280;25564;53.312;9.790;2024-01-15T02:08:44;98828.34;;;0.63;83.84
39891;BME280;25564;53.312;9.790;2024-01-15T02:11:15;98833.56;;;0.62;83.94
39891;BME280;25564;53.312;9.790;2024-01-15T02:13:47;98831.78;;;0.62;83.98
39891;BME280;25564;53.312;9.790;2024-01-15T02:16:19;98820.78;;;0.62;84.00
39891;BME280;25564;53.312;9.790;2024-01-15T02:18:50;98814.06;;;0.61;83.74
39891;BME280;25564;53.312;9.790;2024-01-15T02:21:22;98803.84;;;0.61;83.91
39891;BME280;25564;53.312;9.790;2024-01-15T02:23:53;98811.50;;;0.61;84.09
39891;BME280;25564;53.312;9.790;2024-01-15T02:26:25;98802.94;;;0.62;83.74
39891;BME280;25564;53.312;9.790;2024-01-15T02:28:57;98813.84;;;0.64;83.56
39891;BME280;25564;53.312;9.790;2024-01-15T02:31:29;98823.81;;;0.67;84.31
39891;BME280;25564;53.312;9.790;2024-01-15T02:34:00;98822.09;;;0.67;84.15
39891;BME280;25564;53.312;9.790;2024-01-15T02:36:32;98821.28;;;0.67;83.75
39891;BME280;25564;53.312;9.790;2024-01-15T02:39:03;98796.06;;;0.62;83.96
39891;BME280;25564;53.312;9.790;2024-01-15T02:41:35;98796.41;;;0.58;83.12
39891;BME280;25564;53.312;9.790;2024-01-15T02:44:06;98793.84;;;0.58;83.50
39891;BME280;25564;53.312;9.790;2024-01-15T02:46:37;98799.88;;;0.57;83.71
39891;BME280;25564;53.312;9.790;2024-01-15T02:49:09;98790.50;;;0.57;83.58
39891;BME280;25564;53.312;9.790;2024-01-15T02:51:40;98774.38;;;0.57;83.58
39891;BME280;25564;53.312;9.790;2024-01-15T02:54:12;98789.47;;;0.60;83.57
39891;BME280;25564;53.312;9.790;2024-01-15T02:56:43;98796.31;;;0.59;83.96
39891;BME280;25564;53.312;9.790;2024-01-15T02:59:14;98794.66;;;0.58;83.71
39891;BME280;25564;53.312;9.790;2024-01-15T03:01:47;98798.94;;;0.58;83.68
39891;BME280;25564;53.312;9.790;2024-01-15T03:04:18;98793.84;;;0.58;83.84
39891;BME280;25564;53.312;9.790;2024-01-15T03:06:51;98815.69;;;0.62;83.69
39891;BME280;25564;53.312;9.790;2024-01-15T03:09:22;98819.16;;;0.61;83.80
39891;BME280;25564;53.312;9.790;2024-01-15T03:11:54;98817.09;;;0.66;84.08
39891;BME280;25564;53.312;9.790;2024-01-15T03:14:25;98799.94;;;0.68;83.94
39891;BME280;25564;53.312;9.790;2024-01-15T03:16:57;98807.50;;;0.69;83.99
39891;BME280;25564;53.312;9.790;2024-01-15T03:19:28;98794.63;;;0.71;83.95
39891;BME280;25564;53.312;9.790;2024-01-15T03:22:02;98792.19;;;0.69;83.84
39891;BME280;25564;53.312;9.790;2024-01-15T03:24:35;98799.63;;;0.72;83.92
39891;BME280;25564;53.312;9.790;2024-01-15T03:27:07;98786.25;;;0.69;84.07
39891;BME280;25564;53.312;9.790;2024-01-15T03:29:39;98789.13;;;0.64;83.79
39891;BME280;25564;53.312;9.790;2024-01-15T03:32:12;98790.38;;;0.59;84.09
39891;BME280;25564;53.312;9.790;2024-01-15T03:34:43;98780.06;;;0.60;83.87
39891;BME280;25564;53.312;9.790;2024-01-15T03:37:15;98818.94;;;0.64;84.08
39891;BME280;25564;53.312;9.790;2024-01-15T03:39:47;98822.91;;;0.68;84.10
39891;BME280;25564;53.312;9.790;2024-01-15T03:42:18;98805.13;;;0.66;84.24
39891;BME280;25564;53.312;9.790;2024-01-15T03:44:50;98803.41;;;0.67;83.97
39891;BME280;25564;53.312;9.790;2024-01-15T03:47:21;98821.28;;;0.67;83.58
39891;BME280;25564;53.312;9.790;2024-01-15T03:49:53;98813.16;;;0.62;83.94
39891;BME280;25564;53.312;9.790;2024-01-15T03:52:24;98826.31;;;0.56;83.42
39891;BME280;25564;53.312;9.790;2024-01-15T03:54:55;98828.56;;;0.48;83.25
39891;BME280;25564;53.312;9.790;2024-01-15T03:57:27;98825.31;;;0.46;83.74
39891;BME280;25564;53.312;9.790;2024-01-15T03:59:58;98823.91;;;0.42;83.82
39891;BME280;25564;53.312;9.790;2024-01-15T04:02:31;98837.78;;;0.38;83.38
39891;BME280;25564;53.312;9.790;2024-01-15T04:05:02;98833.69;;;0.35;83.27
39891;BME280;25564;53.312;9.790;2024-01-15T04:07:33;98832.16;;;0.33;83.49
39891;BME280;25564;53.312;9.790;2024-01-15T04:10:05;98827.19;;;0.31;83.92
39891;BME280;25564;53.312;9.790;2024-01-15T04:12:37;98844.31;;;0.29;83.15
39891;BME280;25564;53.312;9.790;2024-01-15T04:15:09;98857.19;;;0.28;83.58
39891;BME280;25564;53.312;9.790;2024-01-15T04:17:40;98851.25;;;0.27;83.37
39891;BME280;25564;53.312;9.790;2024-01-15T04:20:12;98857.78;;;0.31;84.16
39891;BME280;25564;53.312;9.790;2024-01-15T04:22:43;98854.72;;;0.39;84.08
39891;BME280;25564;53.312;9.790;2024-01-15T04:25:15;98854.06;;;0.48;84.08
39891;BME280;25564;53.312;9.790;2024-01-15T04:27:46;98843.69;;;0.51;84.01
39891;BME280;25564;53.312;9.790;2024-01-15T04:30:18;98850.78;;;0.58;84.11
39891;BME280;25564;53.312;9.790;2024-01-15T04:32:49;98849.06;;;0.59;83.79
39891;BME280;25564;53.312;9.790;2024-01-15T04:35:21;98848.22;;;0.58;84.00
39891;BME280;25564;53.312;9.790;2024-01-15T04:37:52;98839.41;;;0.51;83.50
39891;BME280;25564;53.312;9.790;2024-01-15T04:40:24;98837.16;;;0.47;83.56
39891;BME280;25564;53.312;9.790;2024-01-15T04:42:58;98830.41;;;0.46;83.70
39891;BME280;25564;53.312;9.790;2024-01-15T04:45:30;98835.31;;;0.49;83.86
39891;BME280;25564;53.312;9.790;2024-01-15T04:48:01;98833.47;;;0.51;83.63
39891;BME280;25564;53.312;9.790;2024-01-15T04:50:33;98838.47;;;0.52;83.62
39891;BME280;25564;53.312;9.790;2024-01-15T04:53:04;98834.28;;;0.51;83.89
39891;BME280;25564;53.312;9.790;2024-01-15T04:55:37;98827.44;;;0.52;84.07
39891;BME280;25564;53.312;9.790;2024-01-15T04:58:08;98828.06;;;0.55;83.85
39891;BME280;25564;53.312;9.790;2024-01-15T05:00:40;98829.56;;;0.58;83.90
39891;BME280;25564;53.312;9.790;2024-01-15T05:03:11;98830.06;;;0.63;84.38
39891;BME280;25564;53.312;9.790;2024-01-15T05:05:43;98836.19;;;0.60;83.79
39891;BME280;25564;53.312;9.790;2024-01-15T05:08:15;98836.41;;;0.57;83.66
39891;BME280;25564;53.312;9.790;2024-01-15T05:10:47;98848.34;;;0.57;83.92
39891;BME280;25564;53.312;9.790;2024-01-15T05:13:19;98840.00;;;0.55;83.77
39891;BME280;25564;53.312;9.790;2024-01-15T05:15:50;98846.50;;;0.59;84.19
39891;BME280;25564;53.312;9.790;2024-01-15T05:18:21;98837.94;;;0.60;83.89
39891;BME280;25564;53.312;9.790;2024-01-15T05:20:53;98827.00;;;0.58;83.36
39891;BME280;25564;53.312;9.790;2024-01-15T05:23:24;98824.88;;;0.52;83.33
39891;BME280;25564;53.312;9.790;2024-01-15T05:25:56;98826.66;;;0.51;83.68
39891;BME280;25564;53.312;9.790;2024-01-15T05:28:27;98831.03;;;0.49;83.87
39891;BME280;25564;53.312;9.790;2024-01-15T05:30:59;98836.03;;;0.51;83.50
39891;BME280;25564;53.312;9.790;2024-01-15T05:33:32;98841.31;;;0.48;83.75
39891;BME280;25564;53.312;9.790;2024-01-15T05:36:03;98840.41;;;0.49;83.35
39891;BME280;25564;53.312;9.790;2024-01-15T05:38:35;98845.53;;;0.49;83.57
39891;BME280;25564;53.312;9.790;2024-01-15T05:41:06;98843.16;;;0.46;83.58
39891;BME280;25564;53.312;9.790;2024-01-15T05:43:38;98831.53;;;0.42;83.67
39891;BME280;25564;53.312;9.790;2024-01-15T05:46:09;98834.81;;;0.44;83.86
39891;BME280;25564;53.312;9.790;2024-01-15T05:48:41;98831.13;;;0.48;83.42
39891;BME280;25564;53.312;9.790;2024-01-15T05:51:13;98829.97;;;0.52;83.66
39891;BME280;25564;53.312;9.790;2024-01-15T05:53:44;98830.69;;;0.54;83.78
39891;BME280;25564;53.312;9.790;2024-01-15T05:56:17;98845.69;;;0.58;84.57
39891;BME280;25564;53.312;9.790;2024-01-15T05:58:49;98844.66;;;0.61;84.06
39891;BME280;25564;53.312;9.790;2024-01-15T06:01:20;98841.22;;;0.62;83.81
39891;BME280;25564;53.312;9.790;2024-01-15T06:03:52;98830.19;;;0.61;83.68
39891;BME280;25564;53.312;9.790;2024-01-15T06:06:24;98844.56;;;0.62;83.68
39891;BME280;25564;53.312;9.790;2024-01-15T06:08:56;98843.41;;;0.66;83.56
39891;BME280;25564;53.312;9.790;2024-01-15T06:11:33;98843.31;;;0.68;83.89
39891;BME280;25564;53.312;9.790;2024-01-15T06:14:04;98847.50;;;0.69;83.90
39891;BME280;25564;53.312;9.790;2024-01-15T06:16:36;98854.94;;;0.72;83.85
39891;BME280;25564;53.312;9.790;2024-01-15T06:19:07;98855.78;;;0.72;84.22
39891;BME280;25564;53.312;9.790;2024-01-15T06:21:39;98850.56;;;0.74;83.94
39891;BME280;25564;53.312;9.790;2024-01-15T06:24:10;98856.84;;;0.81;84.28
39891;BME280;25564;53.312;9.790;2024-01-15T06:26:42;98858.59;;;0.81;83.78
39891;BME280;25564;53.312;9.790;2024-01-15T06:29:14;98849.09;;;0.83;83.53
39891;BME280;25564;53.312;9.790;2024-01-15T06:31:45;98851.66;;;0.83;83.35
39891;BME280;25564;53.312;9.790;2024-01-15T06:34:19;98857.56;;;0.83;83.63
39891;BME280;25564;53.312;9.790;2024-01-15T06:36:50;98864.63;;;0.80;83.87
39891;BME280;25564;53.312;9.790;2024-01-15T06:39:22;98863.78;;;0.79;83.75
39891;BME280;25564;53.312;9.790;2024-01-15T06:41:53;98865.63;;;0.77;83.73
39891;BME280;25564;53.312;9.790;2024-01-15T06:44:25;98860.53;;;0.77;83.65
39891;BME280;25564;53.312;9.790;2024-01-15T06:46:56;98858.91;;;0.76;83.36
39891;BME280;25564;53.312;9.790;2024-01-15T06:49:31;98846.59;;;0.70;83.72
39891;BME280;25564;53.312;9.790;2024-01-15T06:52:03;98842.63;;;0.66;83.19
39891;BME280;25564;53.312;9.790;2024-01-15T06:54:36;98848.16;;;0.60;83.57
39891;BME280;25564;53.312;9.790;2024-01-15T06:57:07;98862.00;;;0.56;83.57
39891;BME280;25564;53.312;9.790;2024-01-15T06:59:39;98842.84;;;0.50;83.06
39891;BME280;25564;53.312;9.790;2024-01-15T07:02:10;98851.63;;;0.46;83.35
39891;BME280;25564;53.312;9.790;2024-01-15T07:04:42;98865.41;;;0.44;83.57
39891;BME280;25564;53.312;9.790;2024-01-15T07:07:14;98859.19;;;0.48;83.48
39891;BME280;25564;53.312;9.790;2024-01-15T07:09:45;98876.94;;;0.49;83.98
39891;BME280;25564;53.312;9.790;2024-01-15T07:12:17;98868.25;;;0.52;84.11
39891;BME280;25564;53.312;9.790;2024-01-15T07:14:49;98866.41;;;0.54;83.65
39891;BME280;25564;53.312;9.790;2024-01-15T07:17:20;98863.53;;;0.58;83.84
39891;BME280;25564;53.312;9.790;2024-01-15T07:19:52;98860.09;;;0.59;83.51
39891;BME280;25564;53.312;9.790;2024-01-15T07:22:24;98868.75;;;0.57;82.96
39891;BME280;25564;53.312;9.790;2024-01-15T07:24:55;98863.84;;;0.54;83.69
39891;BME280;25564;53.312;9.790;2024-01-15T07:27:28;98873.97;;;0.55;83.47
39891;BME280;25564;53.312;9.790;2024-01-15T07:30:00;98891.00;;;0.55;84.09
39891;BME280;25564;53.312;9.790;2024-01-15T07:32:33;98885.91;;;0.55;83.62
39891;BME280;25564;53.312;9.790;2024-01-15T07:35:05;98879.78;;;0.57;83.91
39891;BME280;25564;53.312;9.790;2024-01-15T07:37:37;98897.41;;;0.60;84.02
39891;BME280;25564;53.312;9.790;2024-01-15T07:40:10;98916.09;;;0.61;83.77
39891;BME280;25564;53.312;9.790;2024-01-15T07:42:42;98933.13;;;0.60;83.63
39891;BME280;25564;53.312;9.790;2024-01-15T07:45:14;98930.88;;;0.56;83.38
39891;BME280;25564;53.312;9.790;2024-01-15T07:47:45;98933.84;;;0.50;83.25
39891;BME280;25564;53.312;9.790;2024-01-15T07:50:17;98935.22;;;0.43;82.50
39891;BME280;25564;53.312;9.790;2024-01-15T07:52:49;98930.31;;;0.40;82.96
39891;BME280;25564;53.312;9.790;2024-01-15T07:55:21;98923.78;;;0.36;82.67
39891;BME280;25564;53.312;9.790;2024-01-15T07:57:52;98911.03;;;0.36;83.39
39891;BME280;25564;53.312;9.790;2024-01-15T08:00:36;98922.16;;;0.35;82.65
39891;BME280;25564;53.312;9.790;2024-01-15T08:03:08;98923.88;;;0.34;82.33
39891;BME280;25564;53.312;9.790;2024-01-15T08:05:40;98922.25;;;0.33;82.79
39891;BME280;25564;53.312;9.790;2024-01-15T08:08:12;98925.72;;;0.32;82.85
39891;BME280;25564;53.312;9.790;2024-01-15T08:10:45;98926.50;;;0.33;83.29
39891;BME280;25564;53.312;9.790;2024-01-15T08:13:17;98923.19;;;0.32;83.09
39891;BME280;25564;53.312;9.790;2024-01-15T08:15:48;98920.50;;;0.34;83.04
39891;BME280;25564;53.312;9.790;2024-01-15T08:18:21;98911.97;;;0.35;82.85
39891;BME280;25564;53.312;9.790;2024-01-15T08:20:53;98910.00;;;0.38;83.14
39891;BME280;25564;53.312;9.790;2024-01-15T08:23:26;98904.91;;;0.38;82.98
39891;BME280;25564;53.312;9.790;2024-01-15T08:25:59;98901.41;;;0.39;83.04
39891;BME280;25564;53.312;9.790;2024-01-15T08:28:31;98902.97;;;0.42;82.67
39891;BME280;25564;53.312;9.790;2024-01-15T08:31:04;98908.88;;;0.42;82.76
39891;BME280;25564;53.312;9.790;2024-01-15T08:33:39;98908.16;;;0.40;83.18
39891;BME280;25564;53.312;9.790;2024-01-15T08:36:12;98920.09;;;0.40;82.76
39891;BME280;25564;53.312;9.790;2024-01-15T08:38:44;98917.78;;;0.37;83.37
39891;BME280;25564;53.312;9.790;2024-01-15T08:41:16;98922.88;;;0.37;82.84
39891;BME280;25564;53.312;9.790;2024-01-15T08:43:49;98916.13;;;0.36;83.07
39891;BME280;25564;53.312;9.790;2024-01-15T08:46:27;98923.06;;;0.34;83.36
39891;BME280;25564;53.312;9.790;2024-01-15T08:48:59;98934.78;;;0.36;83.06
39891;BME280;25564;53.312;9.790;2024-01-15T08:51:31;98927.25;;;0.35;83.53
39891;BME280;25564;53.312;9.790;2024-01-15T08:54:03;98943.28;;;0.37;83.46
39891;BME280;25564;53.312;9.790;2024-01-15T08:56:34;98933.06;;;0.37;83.57
39891;BME280;25564;53.312;9.790;2024-01-15T08:59:07;98932.34;;;0.35;83.49
39891;BME280;25564;53.312;9.790;2024-01-15T09:01:40;98939.06;;;0.36;83.37
39891;BME280;25564;53.312;9.790;2024-01-15T09:04:12;98953.47;;;0.37;83.29
39891;BME280;25564;53.312;9.790;2024-01-15T09:06:46;98950.28;;;0.33;83.19
39891;BME280;25564;53.312;9.790;2024-01-15T09:09:18;98939.50;;;0.30;83.21
39891;BME280;25564;53.312;9.790;2024-01-15T09:11:50;98943.88;;;0.28;83.06
39891;BME280;25564;53.312;9.790;2024-01-15T09:14:23;98945.72;;;0.26;83.08
39891;BME280;25564;53.312;9.790;2024-01-15T09:17:07;98940.50;;;0.27;82.95
39891;BME280;25564;53.312;9.790;2024-01-15T09:19:38;98938.88;;;0.26;83.19
39891;BME280;25564;53.312;9.790;2024-01-15T09:22:12;98931.53;;;0.34;83.15
39891;BME280;25564;53.312;9.790;2024-01-15T09:24:45;98946.91;;;0.45;83.35
39891;BME280;25564;53.312;9.790;2024-01-15T09:27:18;98951.31;;;0.56;83.33
39891;BME280;25564;53.312;9.790;2024-01-15T09:29:50;98944.88;;;0.63;83.16
39891;BME280;25564;53.312;9.790;2024-01-15T09:32:22;98940.78;;;0.73;82.96
39891;BME280;25564;53.312;9.790;2024-01-15T09:34:54;98950.38;;;0.82;83.54
39891;BME280;25564;53.312;9.790;2024-01-15T09:37:26;98948.41;;;0.86;82.93
39891;BME280;25564;53.312;9.790;2024-01-15T09:40:15;98946.47;;;0.89;83.23
39891;BME280;25564;53.312;9.790;2024-01-15T09:42:48;98950.44;;;0.93;83.99
39891;BME280;25564;53.312;9.790;2024-01-15T09:45:19;98950.94;;;0.98;83.51
39891;BME280;25564;53.312;9.790;2024-01-15T09:47:51;98949.09;;;1.00;83.64
39891;BME280;25564;53.312;9.790;2024-01-15T09:50:23;98965.94;;;1.03;83.93
39891;BME280;25564;53.312;9.790;2024-01-15T09:52:55;98964.41;;;1.00;83.39
39891;BME280;25564;53.312;9.790;2024-01-15T09:55:29;98981.09;;;0.93;83.71
39891;BME280;25564;53.312;9.790;2024-01-15T09:58:00;98975.06;;;0.82;83.18
39891;BME280;25564;53.312;9.790;2024-01-15T10:00:33;98974.88;;;0.72;83.37
39891;BME280;25564;53.312;9.790;2024-01-15T10:03:08;98981.19;;;0.66;83.11
39891;BME280;25564;53.312;9.790;2024-01-15T10:05:43;98978.25;;;0.60;83.10
39891;BME280;25564;53.312;9.790;2024-01-15T10:08:16;98978.66;;;0.54;82.75
39891;BME280;25564;53.312;9.790;2024-01-15T10:10:47;98982.63;;;0.45;82.71
39891;BME280;25564;53.312;9.790;2024-01-15T10:13:19;98982.97;;;0.41;82.35
39891;BME280;25564;53.312;9.790;2024-01-15T10:15:52;98983.97;;;0.38;82.50
39891;BME280;25564;53.312;9.790;2024-01-15T10:18:24;98995.47;;;0.31;82.62
39891;BME280;25564;53.312;9.790;2024-01-15T10:20:56;98995.59;;;0.30;82.35
39891;BME280;25564;53.312;9.790;2024-01-15T10:23:28;98989.66;;;0.29;82.80
39891;BME280;25564;53.312;9.790;2024-01-15T10:26:00;98982.00;;;0.29;82.78
39891;BME280;25564;53.312;9.790;2024-01-15T10:28:32;98986.22;;;0.30;82.92
39891;BME280;25564;53.312;9.790;2024-01-15T10:31:04;98981.19;;;0.29;82.81
39891;BME280;25564;53.312;9.790;2024-01-15T10:33:36;98979.16;;;0.34;83.10
39891;BME280;25564;53.312;9.790;2024-01-15T10:36:09;98978.75;;;0.40;82.62
39891;BME280;25564;53.312;9.790;2024-01-15T10:38:42;98985.28;;;0.44;82.73
39891;BME280;25564;53.312;9.790;2024-01-15T10:41:14;98992.53;;;0.50;82.73
39891;BME280;25564;53.312;9.790;2024-01-15T10:43:45;98992.13;;;0.56;82.67
39891;BME280;25564;53.312;9.790;2024-01-15T10:46:17;98993.25;;;0.64;82.88
39891;BME280;25564;53.312;9.790;2024-01-15T10:48:48;98987.63;;;0.72;82.75
39891;BME280;25564;53.312;9.790;2024-01-15T10:51:20;98986.50;;;0.76;82.84
39891;BME280;25564;53.312;9.790;2024-01-15T10:53:53;98987.00;;;0.81;82.70
39891;BME280;25564;53.312;9.790;2024-01-15T10:56:25;98984.78;;;0.89;82.87
39891;BME280;25564;53.312;9.790;2024-01-15T10:58:57;98992.91;;;0.94;82.87
39891;BME280;25564;53.312;9.790;2024-01-15T11:01:31;98997.41;;;1.03;82.36
39891;BME280;25564;53.312;9.790;2024-01-15T11:04:03;98989.72;;;1.16;82.29
39891;BME280;25564;53.312;9.790;2024-01-15T11:06:46;98994.38;;;1.22;82.79
39891;BME280;25564;53.312;9.790;2024-01-15T11:09:18;99003.75;;;1.34;82.70
39891;BME280;25564;53.312;9.790;2024-01-15T11:11:53;98982.25;;;1.49;82.81
39891;BME280;25564;53.312;9.790;2024-01-15T11:14:46;98989.28;;;1.58;82.87
39891;BME280;25564;53.312;9.790;2024-01-15T11:17:18;98991.72;;;1.60;82.52
39891;BME280;25564;53.312;9.790;2024-01-15T11:19:50;98993.31;;;1.61;83.20
39891;BME280;25564;53.312;9.790;2024-01-15T11:25:15;98985.41;;;1.76;83.73
39891;BME280;25564;53.312;9.790;2024-01-15T11:27:52;98990.31;;;1.79;83.55
39891;BME280;25564;53.312;9.790;2024-01-15T11:30:25;98991.53;;;1.74;83.55
39891;BME280;25564;53.312;9.790;2024-01-15T11:32:57;98990.34;;;1.67;83.31
39891;BME280;25564;53.312;9.790;2024-01-15T11:35:48;98994.16;;;1.61;83.04
39891;BME280;25564;53.312;9.790;2024-01-15T11:38:27;98996.59;;;1.39;82.68
39891;BME280;25564;53.312;9.790;2024-01-15T11:41:00;98997.84;;;1.21;82.48
39891;BME280;25564;53.312;9.790;2024-01-15T11:43:33;99006.47;;;1.07;82.20
39891;BME280;25564;53.312;9.790;2024-01-15T11:46:11;99001.50;;;0.93;81.78
39891;BME280;25564;53.312;9.790;2024-01-15T11:48:44;99001.22;;;0.85;81.86
39891;BME280;25564;53.312;9.790;2024-01-15T11:51:19;99000.47;;;0.83;82.12
39891;BME280;25564;53.312;9.790;2024-01-15T11:53:55;99000.19;;;0.75;81.69
39891;BME280;25564;53.312;9.790;2024-01-15T11:56:31;99007.75;;;0.64;81.77
39891;BME280;25564;53.312;9.790;2024-01-15T11:59:02;99021.00;;;0.56;82.20
39891;BME280;25564;53.312;9.790;2024-01-15T12:01:35;99018.75;;;0.52;81.79
39891;BME280;25564;53.312;9.790;2024-01-15T12:04:08;99022.41;;;0.48;81.83
39891;BME280;25564;53.312;9.790;2024-01-15T12:06:40;99017.53;;;0.45;81.75
39891;BME280;25564;53.312;9.790;2024-01-15T12:09:11;99013.22;;;0.45;82.29
39891;BME280;25564;53.312;9.790;2024-01-15T12:11:47;99007.34;;;0.45;82.60
39891;BME280;25564;53.312;9.790;2024-01-15T12:14:22;99008.75;;;0.49;82.27
39891;BME280;25564;53.312;9.790;2024-01-15T12:16:54;99012.94;;;0.50;82.39
39891;BME280;25564;53.312;9.790;2024-01-15T12:19:25;99014.06;;;0.46;82.03
39891;BME280;25564;53.312;9.790;2024-01-15T12:21:57;99017.72;;;0.42;82.33
39891;BME280;25564;53.312;9.790;2024-01-15T12:24:28;99010.91;;;0.42;81.83
39891;BME280;25564;53.312;9.790;2024-01-15T12:27:00;99008.06;;;0.47;82.63
39891;BME280;25564;53.312;9.790;2024-01-15T12:29:32;99001.59;;;0.54;82.17
39891;BME280;25564;53.312;9.790;2024-01-15T12:32:05;99004.78;;;0.57;82.19
39891;BME280;25564;53.312;9.790;2024-01-15T12:34:37;99010.38;;;0.62;82.04
39891;BME280;25564;53.312;9.790;2024-01-15T12:37:09;99007.53;;;0.67;82.31
39891;BME280;25564;53.312;9.790;2024-01-15T12:39:45;99009.97;;;0.68;82.40
39891;BME280;25564;53.312;9.790;2024-01-15T12:42:16;99006.69;;;0.79;82.19
39891;BME280;25564;53.312;9.790;2024-01-15T12:44:49;99015.59;;;0.86;82.28
39891;BME280;25564;53.312;9.790;2024-01-15T12:47:21;99013.31;;;0.94;82.04
39891;BME280;25564;53.312;9.790;2024-01-15T12:49:52;99024.38;;;0.95;81.85
39891;BME280;25564;53.312;9.790;2024-01-15T12:52:36;99018.66;;;0.91;81.58
39891;BME280;25564;53.312;9.790;2024-01-15T12:55:09;99027.03;;;0.93;81.93
39891;BME280;25564;53.312;9.790;2024-01-15T12:57:42;99031.63;;;0.88;81.76
39891;BME280;25564;53.312;9.790;2024-01-15T13:00:13;99034.59;;;0.82;81.76
39891;BME280;25564;53.312;9.790;2024-01-15T13:02:46;99037.66;;;0.75;81.52
39891;BME280;25564;53.312;9.790;2024-01-15T13:05:19;99034.69;;;0.68;81.48
39891;BME280;25564;53.312;9.790;2024-01-15T13:07:51;99049.59;;;0.61;81.91
39891;BME280;25564;53.312;9.790;2024-01-15T13:10:23;99056.13;;;0.53;81.49
39891;BME280;25564;53.312;9.790;2024-01-15T13:12:57;99061.81;;;0.44;82.18
39891;BME280;25564;53.312;9.790;2024-01-15T13:15:28;99056.28;;;0.37;82.08
39891;BME280;25564;53.312;9.790;2024-01-15T13:18:00;99055.56;;;0.35;82.36
39891;BME280;25564;53.312;9.790;2024-01-15T13:20:31;99056.06;;;0.28;82.12
39891;BME280;25564;53.312;9.790;2024-01-15T13:23:03;99061.78;;;0.31;82.49
39891;BME280;25564;53.312;9.790;2024-01-15T13:25:35;99065.25;;;0.30;82.85
39891;BME280;25564;53.312;9.790;2024-01-15T13:28:09;99068.72;;;0.29;82.82
39891;BME280;25564;53.312;9.790;2024-01-15T13:30:40;99073.38;;;0.23;82.85
39891;BME280;25564;53.312;9.790;2024-01-15T13:33:13;99071.13;;;0.18;82.75
39891;BME280;25564;53.312;9.790;2024-01-15T13:35:44;99071.94;;;0.19;82.47
39891;BME280;25564;53.312;9.790;2024-01-15T13:38:17;99058.91;;;0.23;82.90
39891;BME280;25564;53.312;9.790;2024-01-15T13:40:49;99069.44;;;0.31;83.06